Wilsonville, Kentucky
Current Conditions -  °F | °C
As of 5:53 PM on Tuesday 25 Nov 2014 (Local Time) from KLOU Reporting Station
Clear Clear  
Wind Chill: 39°   Ceiling: Unl
Heat Index: 42°   Visibility: 10mi
Dew Point: 26°   Wind: 5mph
Humidity: 53%   Direction: 280°W
Pressure: 30.14"   Gusts: NA
Location:  38.1735°N, 85.4233°W
Report Text: KLOU 252253Z 28004KT 10SM CLR 06/M03 A3014 RMK AO2 SLP211 T00561033
Loading
Personal Weather Stations






























Interactive Weather Map New forecast layout! Learn more

10-Day Weather Forecast

Advertisements
Track Severe Weather on mobile